EFKE/KEM METAR and TAF weather

Enter ICAO airport designator
Station Type Date Time Source
EFKE METAR 2019/08/24 09:50 UTC NOAA

EFKE 240950Z 35008KT 320V020 CAVOK 15/11 Q1020


Station Type Date Time Source
EFKE Decoded METAR 2019/08/24 09:50 UTC NOAA

Station name not available
Aug 24, 2019 - 05:50 AM EDT / 2019.08.24 0950 UTC
Wind: from the N (350 degrees) at 9 MPH (8 KT) (direction variable):0
Visibility: greater than 7 mile(s):0
Temperature: 59 F (15 C)
Dew Point: 51 F (11 C)
Relative Humidity: 76%
Pressure (altimeter): 30.12 in. Hg (1020 hPa)
ob: EFKE 240950Z 35008KT 320V020 CAVOK 15/11 Q1020
cycle: 10

Station Type Date Time Source
EFKE TAF 2015/01/12 15:42 UTC NOAA

TAF EFKE 121433Z 1215/1312 03006KT CAVOK
BECMG 1300/1302 9999 BKN015
FM130400 07008KT 9999 SCT014 BKN018
TEMPO 1304/1312 7000 -SN

Example: see airport list